Austin, Pennsylvania
Current Conditions -  °F | °C
As of 6:53 PM on Monday 20 Oct 2014 (Local Time) from KBFD Reporting Station
Overcast Overcast  
Wind Chill: 50°   Ceiling: 6000
Heat Index: 50°   Visibility: 10mi
Dew Point: 39°   Wind: 6mph
Humidity: 66%   Direction: 210°SSW
Pressure: 29.87"   Gusts: NA
Location:  41.63°N, 78.09°W
Report Text: KBFD 202253Z AUTO 21005KT 10SM SCT047 OVC060 10/04 A2987 RMK AO2 RAB18E44 SLP119 P0000 T01000039
Loading
Personal Weather Stations






























Interactive Weather Map New forecast layout! Learn more

10-Day Weather Forecast

Advertisements
Track Severe Weather on mobile